createdAt,value
2017-05-07T00:01:45.575Z,37.10
2017-05-07T00:04:13.985Z,35.45
2017-05-07T00:06:42.397Z,30.23
2017-05-07T00:09:10.457Z,36.88
2017-05-07T00:11:38.092Z,33.28
2017-05-07T00:14:05.746Z,40.08
2017-05-07T00:16:33.728Z,40.18
2017-05-07T00:19:01.381Z,39.77
2017-05-07T00:21:29.800Z,41.13
2017-05-07T00:23:58.420Z,34.38
2017-05-07T00:26:26.832Z,43.35
2017-05-07T00:28:54.479Z,36.53
2017-05-07T00:31:22.412Z,36.73
2017-05-07T00:33:50.054Z,38.07
2017-05-07T00:36:17.706Z,34.53
2017-05-07T00:38:45.705Z,35.15
2017-05-07T00:41:13.400Z,33.67
2017-05-07T00:43:41.044Z,32.40
2017-05-07T00:46:09.766Z,32.27
2017-05-07T00:48:37.449Z,34.78
2017-05-07T00:51:05.870Z,32.60
2017-05-07T00:53:33.925Z,33.60
2017-05-07T00:56:01.564Z,38.95
2017-05-07T00:58:29.975Z,30.03
2017-05-07T01:00:57.917Z,40.55
2017-05-07T01:03:25.572Z,40.07
2017-05-07T01:05:53.229Z,38.47
2017-05-07T01:08:22.060Z,42.63
2017-05-07T01:10:49.708Z,37.48
2017-05-07T01:13:17.351Z,32.10
2017-05-07T01:15:45.300Z,31.55
2017-05-07T01:18:12.938Z,32.42
2017-05-07T01:20:40.597Z,34.23
2017-05-07T01:23:08.566Z,34.70
2017-05-07T01:25:36.225Z,32.78
2017-05-07T01:28:03.873Z,36.10
2017-05-07T01:30:31.900Z,33.85
2017-05-07T01:33:00.320Z,31.73
2017-05-07T01:35:28.753Z,31.05
2017-05-07T01:37:56.790Z,31.17
2017-05-07T01:40:24.439Z,34.83
2017-05-07T01:42:52.100Z,31.65
2017-05-07T01:45:20.061Z,33.72
2017-05-07T01:47:47.717Z,31.13
2017-05-07T01:50:15.377Z,37.02
2017-05-07T01:52:44.085Z,39.75
2017-05-07T01:55:11.739Z,34.88
2017-05-07T01:57:39.400Z,46.73
2017-05-07T02:00:07.460Z,30.47
2017-05-07T02:02:35.105Z,40.98
2017-05-07T02:05:02.841Z,37.40
2017-05-07T02:07:30.818Z,30.67
2017-05-07T02:09:58.468Z,31.55
2017-05-07T02:12:26.125Z,30.33
2017-05-07T02:14:54.874Z,39.25
2017-05-07T02:17:22.535Z,37.40
2017-05-07T02:19:50.178Z,28.35
2017-05-07T02:22:18.925Z,39.50
2017-05-07T02:24:46.577Z,34.40
2017-05-07T02:27:14.996Z,39.35
2017-05-07T02:29:43.712Z,38.40
2017-05-07T02:32:11.355Z,38.85
2017-05-07T02:34:39.784Z,35.98
2017-05-07T02:37:07.786Z,39.63
2017-05-07T02:39:35.433Z,45.08
2017-05-07T02:42:03.081Z,36.18
2017-05-07T02:44:31.055Z,32.07
2017-05-07T02:46:59.470Z,27.83
2017-05-07T02:49:27.125Z,34.52
2017-05-07T02:51:55.202Z,34.43
2017-05-07T02:54:22.844Z,31.40
2017-05-07T02:56:50.491Z,32.22
2017-05-07T02:59:18.450Z,34.33
2017-05-07T03:01:46.106Z,31.35
2017-05-07T03:04:13.757Z,30.22
2017-05-07T03:06:41.809Z,29.08
2017-05-07T03:09:09.453Z,32.37
2017-05-07T03:11:37.880Z,34.50
2017-05-07T03:14:05.854Z,31.63
2017-05-07T03:16:33.514Z,33.72
2017-05-07T03:19:01.176Z,32.35
2017-05-07T03:21:29.212Z,31.53
2017-05-07T03:23:56.867Z,35.55
2017-05-07T03:26:24.508Z,33.05
2017-05-07T03:28:52.469Z,33.92
2017-05-07T03:31:20.121Z,30.93
2017-05-07T03:33:47.773Z,32.13
2017-05-07T03:36:15.798Z,34.92
2017-05-07T03:38:43.455Z,32.85
2017-05-07T03:41:11.112Z,42.80
2017-05-07T03:43:39.179Z,44.22
2017-05-07T03:46:06.829Z,47.07
2017-05-07T03:48:34.486Z,43.42
2017-05-07T03:51:03.198Z,33.00
2017-05-07T03:53:31.614Z,44.57
2017-05-07T03:55:59.769Z,44.02
2017-05-07T03:58:27.809Z,51.73
2017-05-07T04:00:56.221Z,50.17
2017-05-07T04:03:23.870Z,52.83
2017-05-07T04:05:52.682Z,46.67
2017-05-07T04:08:20.340Z,58.38
2017-05-07T04:10:47.996Z,62.72
2017-05-07T04:13:17.462Z,55.87
2017-05-07T04:15:45.144Z,53.78
2017-05-07T04:18:13.554Z,52.33
2017-05-07T04:20:41.508Z,48.17
2017-05-07T04:23:09.167Z,63.70
2017-05-07T04:25:36.837Z,52.73
2017-05-07T04:28:04.884Z,60.50
2017-05-07T04:30:33.160Z,40.68
2017-05-07T04:33:02.313Z,54.37
2017-05-07T04:35:30.266Z,37.28
2017-05-07T04:37:58.677Z,38.38
2017-05-07T04:40:27.100Z,48.85
2017-05-07T04:42:55.054Z,47.28
2017-05-07T04:45:22.706Z,39.17
2017-05-07T04:47:51.112Z,33.67
2017-05-07T04:50:19.839Z,33.85
2017-05-07T04:52:47.497Z,32.73
2017-05-07T04:55:15.162Z,30.98
2017-05-07T04:57:44.121Z,42.03
2017-05-07T05:00:11.782Z,29.65
2017-05-07T05:02:39.438Z,27.37
2017-05-07T05:05:07.470Z,38.90
2017-05-07T05:07:35.131Z,34.52
2017-05-07T05:10:02.794Z,32.93
2017-05-07T05:12:31.522Z,38.70
2017-05-07T05:14:59.180Z,73.18
2017-05-07T05:17:26.829Z,50.38
2017-05-07T05:20:10.762Z,44.30
2017-05-07T05:26:00.719Z,60.55
2017-05-07T05:28:46.054Z,47.38
2017-05-07T05:31:14.781Z,42.23
2017-05-07T05:33:42.445Z,48.38
2017-05-07T05:36:10.867Z,39.18
2017-05-07T05:38:38.810Z,49.37
2017-05-07T05:41:07.229Z,42.80
2017-05-07T05:43:34.868Z,46.48
2017-05-07T05:46:03.602Z,48.47
2017-05-07T05:48:31.264Z,34.47
2017-05-07T05:50:58.918Z,34.28
2017-05-07T05:53:26.883Z,37.87
2017-05-07T05:55:55.314Z,46.12
2017-05-07T05:58:22.974Z,53.77
2017-05-07T06:00:50.926Z,57.62
2017-05-07T06:03:18.579Z,55.25
2017-05-07T06:05:46.235Z,40.97
2017-05-07T06:08:14.206Z,49.63
2017-05-07T06:10:42.621Z,38.13
2017-05-07T06:13:10.287Z,53.65
2017-05-07T06:15:38.446Z,38.97
2017-05-07T06:18:07.433Z,40.43
2017-05-07T06:20:35.107Z,46.85
2017-05-07T06:23:03.863Z,47.05
2017-05-07T06:25:32.292Z,39.52
2017-05-07T06:27:59.942Z,45.75
2017-05-07T06:30:27.897Z,49.23
2017-05-07T06:32:56.302Z,40.65
2017-05-07T06:38:02.509Z,35.12
2017-05-07T06:40:31.073Z,45.10
2017-05-07T06:42:58.952Z,37.75
2017-05-07T06:45:27.080Z,34.87
2017-05-07T06:47:55.836Z,37.47
2017-05-07T06:50:23.494Z,41.77
2017-05-07T06:52:52.345Z,38.42
2017-05-07T06:55:20.050Z,43.87
2017-05-07T06:57:47.699Z,47.80
2017-05-07T07:00:18.007Z,38.10
2017-05-07T07:02:46.460Z,50.50
2017-05-07T07:05:14.116Z,47.00
2017-05-07T07:07:42.165Z,50.02
2017-05-07T07:10:09.816Z,49.05
2017-05-07T07:12:38.362Z,41.78
2017-05-07T07:15:06.328Z,37.10
2017-05-07T07:17:33.988Z,44.92
2017-05-07T07:20:01.641Z,40.77
2017-05-07T07:22:29.787Z,43.50
2017-05-07T07:25:00.404Z,41.60
2017-05-07T07:27:28.073Z,41.60
2017-05-07T07:29:57.040Z,48.80
2017-05-07T07:32:25.448Z,40.58
2017-05-07T07:34:53.098Z,40.62
2017-05-07T07:37:21.061Z,40.67
2017-05-07T07:39:48.960Z,42.45
2017-05-07T07:42:17.412Z,41.40
2017-05-07T07:44:46.973Z,37.33
2017-05-07T07:47:14.640Z,37.12
2017-05-07T07:49:42.305Z,38.95
2017-05-07T07:52:11.082Z,34.60
2017-05-07T07:54:38.745Z,38.88
2017-05-07T07:57:06.396Z,37.58
2017-05-07T07:59:35.168Z,38.08
2017-05-07T08:02:03.610Z,40.57
2017-05-07T08:04:31.258Z,41.88
2017-05-07T08:06:59.236Z,39.28
2017-05-07T08:09:27.654Z,40.00
2017-05-07T08:11:55.308Z,40.00
2017-05-07T08:14:23.312Z,39.90
2017-05-07T08:16:50.983Z,38.88
2017-05-07T08:19:19.488Z,39.90
2017-05-07T08:21:47.509Z,37.77
2017-05-07T08:24:15.165Z,37.35
2017-05-07T08:26:42.824Z,38.65
2017-05-07T08:29:10.868Z,35.73
2017-05-07T08:31:38.529Z,35.72
2017-05-07T08:34:06.183Z,33.28
2017-05-07T08:36:34.209Z,29.38
2017-05-07T08:39:02.640Z,31.80
2017-05-07T08:41:31.048Z,34.60
2017-05-07T08:43:59.756Z,33.70
2017-05-07T08:46:28.181Z,29.90
2017-05-07T08:48:55.838Z,29.80
2017-05-07T08:51:24.565Z,32.90
2017-05-07T08:53:52.215Z,29.05
2017-05-07T08:56:19.871Z,29.20
2017-05-07T08:58:47.839Z,28.40
2017-05-07T09:01:15.489Z,30.25
2017-05-07T09:03:43.976Z,29.05
2017-05-07T09:06:13.444Z,30.08
2017-05-07T09:08:41.949Z,30.25
2017-05-07T09:11:10.406Z,30.18
2017-05-07T09:13:39.146Z,28.57
2017-05-07T09:16:36.524Z,26.68
2017-05-07T09:19:05.276Z,27.13
2017-05-07T09:21:32.930Z,28.73
2017-05-07T09:24:01.336Z,25.55
2017-05-07T09:26:30.188Z,28.33
2017-05-07T09:28:58.605Z,30.92
2017-05-07T09:31:26.269Z,33.72
2017-05-07T09:33:55.746Z,29.53
2017-05-07T09:36:24.163Z,30.70
2017-05-07T09:38:52.587Z,30.87
2017-05-07T09:41:20.633Z,32.83
2017-05-07T09:43:49.070Z,25.12
2017-05-07T09:46:17.502Z,31.00
2017-05-07T09:48:46.339Z,26.85
2017-05-07T09:51:13.992Z,31.45
2017-05-07T09:53:41.644Z,27.82
2017-05-07T09:56:11.183Z,31.68
2017-05-07T09:58:38.829Z,24.22
2017-05-07T10:01:06.476Z,26.77
2017-05-07T10:03:34.465Z,26.38
2017-05-07T10:06:02.130Z,26.55
2017-05-07T10:08:30.549Z,25.17
2017-05-07T10:10:59.354Z,23.68
2017-05-07T10:13:27.009Z,24.58
2017-05-07T10:15:54.661Z,22.70
2017-05-07T10:18:24.122Z,25.65
2017-05-07T10:20:51.776Z,26.77
2017-05-07T10:23:19.447Z,23.70
2017-05-07T10:25:47.481Z,24.88
2017-05-07T10:28:15.133Z,21.90
2017-05-07T10:30:43.541Z,25.58
2017-05-07T10:33:12.402Z,25.07
2017-05-07T10:35:40.062Z,25.27
2017-05-07T10:38:08.492Z,20.05
2017-05-07T10:40:36.646Z,22.93
2017-05-07T10:43:04.297Z,23.77
2017-05-07T10:45:31.948Z,19.67
2017-05-07T10:47:59.991Z,21.17
2017-05-07T10:50:27.650Z,22.90
2017-05-07T10:52:55.327Z,22.33
2017-05-07T10:55:23.880Z,20.15
2017-05-07T10:57:53.037Z,22.63
2017-05-07T11:00:20.700Z,20.73
2017-05-07T11:02:48.724Z,19.25
2017-05-07T11:05:16.383Z,21.57
2017-05-07T11:07:45.529Z,18.53
2017-05-07T11:10:13.461Z,20.62
2017-05-07T11:12:41.874Z,22.08
2017-05-07T11:15:09.538Z,19.52
2017-05-07T11:17:39.185Z,17.58
2017-05-07T11:20:06.907Z,17.73
2017-05-07T11:22:35.329Z,17.32
2017-05-07T11:25:03.285Z,19.00
2017-05-07T11:27:30.947Z,18.03
2017-05-07T11:29:58.629Z,17.60
2017-05-07T11:32:27.350Z,16.47
2017-05-07T11:34:55.004Z,14.22
2017-05-07T11:37:23.431Z,16.05
2017-05-07T11:39:51.664Z,15.35
2017-05-07T11:42:20.381Z,16.92
2017-05-07T11:44:48.052Z,18.33
2017-05-07T11:47:16.013Z,15.73
2017-05-07T11:49:43.676Z,14.67
2017-05-07T11:52:11.322Z,18.45
2017-05-07T11:54:40.041Z,16.17
2017-05-07T11:57:07.713Z,15.62
2017-05-07T11:59:35.365Z,15.17
2017-05-07T12:02:04.121Z,14.97
2017-05-07T12:04:32.563Z,15.62
2017-05-07T12:07:00.223Z,15.02
2017-05-07T12:09:28.192Z,14.75
2017-05-07T12:11:55.844Z,16.78
2017-05-07T12:14:24.268Z,15.98
2017-05-07T12:16:52.231Z,14.63
2017-05-07T12:19:19.878Z,14.73
2017-05-07T12:21:47.527Z,14.95
2017-05-07T12:24:15.509Z,14.70
2017-05-07T12:26:43.916Z,14.43
2017-05-07T12:29:12.345Z,14.53
2017-05-07T12:31:40.393Z,14.25
2017-05-07T12:34:08.052Z,12.68
2017-05-07T12:36:35.694Z,15.60
2017-05-07T12:39:04.463Z,14.82
2017-05-07T12:41:32.124Z,13.43
2017-05-07T12:43:59.781Z,13.37
2017-05-07T12:46:27.817Z,13.57
2017-05-07T12:48:55.464Z,13.52
2017-05-07T12:51:23.123Z,14.88
2017-05-07T12:53:52.578Z,14.22
2017-05-07T12:56:20.221Z,14.82
2017-05-07T12:58:47.866Z,14.12
2017-05-07T13:01:16.587Z,12.58
2017-05-07T13:03:44.269Z,12.60
2017-05-07T13:06:12.770Z,12.23
2017-05-07T13:08:40.830Z,10.98
2017-05-07T13:11:08.485Z,11.28
2017-05-07T13:13:36.137Z,10.92
2017-05-07T13:16:04.875Z,10.55
2017-05-07T13:18:33.285Z,10.88
2017-05-07T13:21:00.929Z,9.73
2017-05-07T13:23:28.944Z,10.00
2017-05-07T13:25:56.577Z,9.98
2017-05-07T13:28:24.217Z,7.92
2017-05-07T13:30:52.202Z,10.12
2017-05-07T13:33:20.617Z,10.12
2017-05-07T13:35:49.024Z,9.18
2017-05-07T13:38:17.809Z,8.53
2017-05-07T13:40:45.587Z,9.63
2017-05-07T13:43:13.229Z,7.33
2017-05-07T13:45:41.246Z,7.37
2017-05-07T13:48:10.489Z,8.52
2017-05-07T13:50:38.925Z,8.02
2017-05-07T13:53:07.640Z,9.00
2017-05-07T13:55:35.280Z,9.42
2017-05-07T13:58:03.005Z,8.28
2017-05-07T14:00:31.016Z,8.10
2017-05-07T14:02:58.854Z,7.73
2017-05-07T14:05:28.044Z,7.43
2017-05-07T14:07:56.748Z,7.78
2017-05-07T14:10:25.140Z,7.48
2017-05-07T14:12:53.540Z,9.28
2017-05-07T14:15:21.508Z,10.23
2017-05-07T14:17:49.909Z,9.32
2017-05-07T14:20:18.313Z,8.30
2017-05-07T14:22:47.146Z,8.00
2017-05-07T14:25:14.802Z,7.75
2017-05-07T14:27:43.212Z,8.53
2017-05-07T14:30:11.189Z,7.93
2017-05-07T14:32:38.825Z,7.17
2017-05-07T14:35:06.506Z,7.60
2017-05-07T14:37:35.236Z,7.98
2017-05-07T14:40:03.640Z,8.85
2017-05-07T14:42:32.798Z,7.67
2017-05-07T14:45:00.800Z,7.95
2017-05-07T14:47:29.209Z,6.15
2017-05-07T14:49:57.620Z,6.75
2017-05-07T14:52:26.353Z,8.00
2017-05-07T14:54:53.989Z,5.40
2017-05-07T14:57:21.624Z,5.75
2017-05-07T14:59:49.545Z,5.02
2017-05-07T15:02:17.949Z,5.53
2017-05-07T15:04:46.348Z,4.78
2017-05-07T15:07:14.380Z,6.00
2017-05-07T15:09:42.016Z,4.55
2017-05-07T15:12:10.427Z,5.02
2017-05-07T15:14:39.152Z,4.85
2017-05-07T15:17:07.553Z,5.37
2017-05-07T15:19:35.212Z,4.57
2017-05-07T15:22:03.945Z,4.18
2017-05-07T15:24:32.351Z,4.57
2017-05-07T15:27:00.803Z,4.40
2017-05-07T15:29:29.441Z,4.57
2017-05-07T15:31:57.075Z,4.12
2017-05-07T15:34:24.722Z,3.55
2017-05-07T15:36:52.680Z,3.77
2017-05-07T15:39:20.320Z,4.63
2017-05-07T15:41:48.720Z,4.12
2017-05-07T15:44:17.412Z,4.82
2017-05-07T15:46:46.221Z,4.00
2017-05-07T15:49:14.624Z,4.37
2017-05-07T15:51:42.673Z,3.63
2017-05-07T15:54:10.302Z,3.38
2017-05-07T15:56:38.708Z,4.63
2017-05-07T15:59:06.716Z,4.80
2017-05-07T16:01:34.374Z,4.40
2017-05-07T16:04:02.810Z,4.42
2017-05-07T16:06:30.769Z,3.97
2017-05-07T16:08:58.404Z,4.90
2017-05-07T16:11:26.076Z,3.03
2017-05-07T16:13:54.881Z,6.12
2017-05-07T16:16:26.170Z,3.78
2017-05-07T16:22:17.008Z,4.47
2017-05-07T16:25:00.506Z,3.88
2017-05-07T16:27:43.846Z,4.15
2017-05-07T16:30:27.388Z,4.38
2017-05-07T16:32:55.734Z,4.82
2017-05-07T16:35:24.157Z,4.72
2017-05-07T16:37:52.162Z,3.90
2017-05-07T16:40:20.572Z,3.87
2017-05-07T16:42:48.234Z,3.90
2017-05-07T16:45:17.950Z,3.77
2017-05-07T16:47:45.624Z,3.98
2017-05-07T16:50:14.021Z,3.93
2017-05-07T16:52:41.945Z,5.78
2017-05-07T16:55:09.576Z,4.45
2017-05-07T16:57:37.981Z,4.32
2017-05-07T17:00:05.981Z,3.40
2017-05-07T17:02:39.245Z,3.78
2017-05-07T17:05:07.200Z,3.78
2017-05-07T17:07:34.853Z,3.70
2017-05-07T17:10:02.504Z,4.22
2017-05-07T17:12:30.445Z,3.97
2017-05-07T17:14:59.596Z,4.38
2017-05-07T17:17:27.271Z,4.80
2017-05-07T17:19:56.001Z,4.00
2017-05-07T17:22:23.891Z,4.85
2017-05-07T17:24:51.548Z,4.22
2017-05-07T17:27:21.035Z,3.98
2017-05-07T17:29:50.181Z,3.50
2017-05-07T17:32:17.839Z,3.77
2017-05-07T17:34:45.936Z,3.82
2017-05-07T17:37:13.577Z,3.90
2017-05-07T17:39:42.749Z,4.15
2017-05-07T17:42:12.192Z,4.37
2017-05-07T17:44:40.837Z,4.02
2017-05-07T17:47:09.246Z,4.70
2017-05-07T17:49:38.026Z,3.65
2017-05-07T17:52:05.677Z,4.20
2017-05-07T17:54:33.325Z,4.03
2017-05-07T17:57:01.268Z,4.27
2017-05-07T17:59:29.667Z,4.88
2017-05-07T18:01:57.312Z,5.00
2017-05-07T18:04:25.259Z,5.45
2017-05-07T18:06:52.912Z,5.88
2017-05-07T18:09:20.568Z,6.05
2017-05-07T18:11:49.259Z,5.65
2017-05-07T18:14:16.902Z,6.10
2017-05-07T18:16:45.380Z,7.58
2017-05-07T18:19:13.380Z,9.28
2017-05-07T18:21:41.025Z,14.18
2017-05-07T18:24:10.185Z,11.47
2017-05-07T18:26:38.161Z,11.32
2017-05-07T18:29:07.315Z,11.23
2017-05-07T18:31:34.952Z,7.60
2017-05-07T18:34:02.919Z,6.90
2017-05-07T18:36:31.326Z,7.45
2017-05-07T18:38:58.967Z,7.12
2017-05-07T18:41:27.008Z,6.03
2017-05-07T18:43:54.662Z,6.58
2017-05-07T18:46:22.300Z,6.78
2017-05-07T18:48:50.346Z,6.33
2017-05-07T18:51:17.985Z,6.68
2017-05-07T18:53:45.640Z,5.45
2017-05-07T18:56:14.335Z,8.15
2017-05-07T18:58:41.984Z,7.42
2017-05-07T19:01:10.419Z,6.93
2017-05-07T19:03:39.133Z,5.83
2017-05-07T19:06:06.772Z,6.80
2017-05-07T19:08:35.211Z,6.03
2017-05-07T19:11:03.178Z,6.72
2017-05-07T19:13:30.824Z,5.78
2017-05-07T19:15:58.811Z,6.35
2017-05-07T19:18:27.530Z,6.77
2017-05-07T19:20:55.940Z,8.38
2017-05-07T19:23:24.389Z,6.90
2017-05-07T19:25:53.117Z,7.03
2017-05-07T19:28:20.874Z,7.82
2017-05-07T19:30:48.525Z,7.53
2017-05-07T19:33:16.755Z,9.07
2017-05-07T19:35:44.413Z,7.38
2017-05-07T19:38:12.819Z,8.43
2017-05-07T19:40:41.049Z,8.97
2017-05-07T19:43:09.126Z,7.85
2017-05-07T19:45:36.766Z,8.02
2017-05-07T19:48:04.709Z,8.25
2017-05-07T19:50:32.459Z,10.15
2017-05-07T19:53:00.203Z,7.78
2017-05-07T19:55:28.269Z,8.90
2017-05-07T19:57:56.039Z,7.88
2017-05-07T20:00:23.794Z,8.90
2017-05-07T20:02:51.924Z,9.60
2017-05-07T20:05:20.431Z,9.07
2017-05-07T20:07:48.947Z,9.02
2017-05-07T20:10:17.823Z,9.70
2017-05-07T20:12:45.989Z,8.23
2017-05-07T20:15:14.402Z,8.97
2017-05-07T20:17:42.363Z,9.10
2017-05-07T20:20:10.777Z,9.20
2017-05-07T20:22:38.521Z,9.95
2017-05-07T20:25:06.480Z,9.27
2017-05-07T20:27:34.133Z,8.60
2017-05-07T20:30:01.781Z,8.38
2017-05-07T20:32:30.540Z,9.05
2017-05-07T20:34:58.214Z,9.65
2017-05-07T20:37:25.863Z,9.23
2017-05-07T20:39:53.792Z,9.32
2017-05-07T20:42:22.676Z,8.08
2017-05-07T20:44:50.387Z,9.07
2017-05-07T20:47:18.468Z,8.08
2017-05-07T20:49:46.876Z,10.20
2017-05-07T20:52:15.355Z,9.82
2017-05-07T20:54:44.069Z,10.55
2017-05-07T20:57:11.705Z,9.80
2017-05-07T20:59:39.339Z,8.58
2017-05-07T21:02:07.318Z,9.35
2017-05-07T21:04:34.950Z,8.27
2017-05-07T21:07:03.427Z,9.00
2017-05-07T21:09:31.381Z,9.88
2017-05-07T21:11:59.028Z,10.73
2017-05-07T21:14:26.674Z,9.78
2017-05-07T21:16:54.731Z,9.25
2017-05-07T21:19:22.359Z,9.75
2017-05-07T21:21:49.993Z,7.12
2017-05-07T21:24:17.974Z,7.52
2017-05-07T21:26:45.659Z,8.18
2017-05-07T21:29:14.065Z,7.90
2017-05-07T21:31:42.021Z,6.62
2017-05-07T21:34:10.431Z,8.82
2017-05-07T21:36:39.587Z,7.85
2017-05-07T21:39:07.537Z,8.08
2017-05-07T21:41:35.171Z,7.92
2017-05-07T21:44:03.578Z,9.87
2017-05-07T21:46:32.323Z,8.43
2017-05-07T21:49:01.724Z,8.85
2017-05-07T21:51:29.364Z,9.87
2017-05-07T21:53:57.304Z,10.25
2017-05-07T21:56:24.940Z,10.37
2017-05-07T21:58:52.576Z,8.17
2017-05-07T22:01:20.531Z,9.35
2017-05-07T22:03:48.172Z,7.67
2017-05-07T22:06:15.812Z,8.65
2017-05-07T22:08:44.556Z,9.20
2017-05-07T22:11:12.199Z,8.70
2017-05-07T22:13:39.842Z,7.93
2017-05-07T22:16:08.587Z,8.08
2017-05-07T22:18:36.989Z,9.42
2017-05-07T22:21:05.405Z,9.02
2017-05-07T22:23:33.376Z,10.60
2017-05-07T22:26:01.009Z,9.25
2017-05-07T22:28:28.637Z,9.08
2017-05-07T22:30:56.608Z,8.15
2017-05-07T22:33:24.258Z,9.92
2017-05-07T22:35:51.897Z,9.50
2017-05-07T22:38:19.834Z,9.78
2017-05-07T22:40:47.492Z,11.43
2017-05-07T22:43:15.183Z,12.33
2017-05-07T22:45:43.893Z,10.95
2017-05-07T22:48:11.529Z,9.13
2017-05-07T22:50:39.928Z,9.15
2017-05-07T22:53:07.901Z,9.40
2017-05-07T22:55:37.895Z,9.82
2017-05-07T22:58:06.296Z,9.95
2017-05-07T23:00:35.067Z,10.27
2017-05-07T23:03:02.715Z,11.58
2017-05-07T23:05:30.359Z,10.05
2017-05-07T23:07:58.376Z,10.17
2017-05-07T23:10:26.011Z,10.28
2017-05-07T23:12:53.650Z,9.33
2017-05-07T23:15:22.337Z,9.20
2017-05-07T23:17:50.735Z,9.98
2017-05-07T23:20:18.382Z,9.22
2017-05-07T23:22:46.449Z,9.55
2017-05-07T23:25:14.085Z,8.62
2017-05-07T23:27:41.725Z,9.63
2017-05-07T23:30:11.192Z,9.07
2017-05-07T23:32:38.834Z,8.12
2017-05-07T23:35:06.474Z,9.77
2017-05-07T23:37:35.261Z,7.97
2017-05-07T23:40:03.674Z,9.68
2017-05-07T23:42:32.094Z,8.17
2017-05-07T23:45:00.130Z,9.33
2017-05-07T23:47:27.768Z,9.82
2017-05-07T23:49:55.422Z,10.00
2017-05-07T23:52:23.370Z,9.40
2017-05-07T23:54:51.009Z,8.68
2017-05-07T23:57:18.645Z,9.33
2017-05-07T23:59:47.349Z,8.83
